createdAt,value
2022-10-05T00:01:28.686Z,98836.66
2022-10-05T00:04:01.034Z,98846.47
2022-10-05T00:06:29.460Z,98852.41
2022-10-05T00:08:56.543Z,98846.09
2022-10-05T00:11:23.027Z,98850.22
2022-10-05T00:13:49.645Z,98843.91
2022-10-05T00:16:19.102Z,98839.38
2022-10-05T00:18:49.322Z,98845.59
2022-10-05T00:21:18.830Z,98846.72
2022-10-05T00:23:45.440Z,98848.38
2022-10-05T00:26:16.755Z,98842.81
2022-10-05T00:28:43.252Z,98842.81
2022-10-05T00:31:21.276Z,98840.78
2022-10-05T00:33:48.240Z,98837.06
2022-10-05T00:36:15.557Z,98825.75
2022-10-05T00:38:42.830Z,98830.38
2022-10-05T00:41:11.598Z,98829.44
2022-10-05T00:43:37.988Z,98829.66
2022-10-05T00:46:14.356Z,98831.50
2022-10-05T00:49:08.263Z,98826.88
2022-10-05T00:51:37.082Z,98831.50
2022-10-05T00:54:07.062Z,98829.66
2022-10-05T00:56:47.457Z,98821.13
2022-10-05T00:59:40.422Z,98823.16
2022-10-05T01:02:12.975Z,98830.59
2022-10-05T01:04:47.173Z,98832.81
2022-10-05T01:07:37.757Z,98828.69
2022-10-05T01:10:15.828Z,98828.94
2022-10-05T01:12:49.035Z,98827.59
2022-10-05T01:15:29.370Z,98825.78
2022-10-05T01:18:08.807Z,98826.66
2022-10-05T01:20:57.055Z,98829.66
2022-10-05T01:24:06.207Z,98824.47
2022-10-05T01:26:53.009Z,98818.13
2022-10-05T01:29:23.830Z,98812.97
2022-10-05T01:31:59.309Z,98812.03
2022-10-05T01:34:44.709Z,98817.63
2022-10-05T01:37:23.428Z,98823.34
2022-10-05T01:40:08.018Z,98816.81
2022-10-05T01:42:40.737Z,98815.19
2022-10-05T01:45:31.600Z,98819.00
2022-10-05T01:48:14.884Z,98818.50
2022-10-05T01:50:51.316Z,98817.75
2022-10-05T01:53:38.019Z,98810.00
2022-10-05T01:56:06.575Z,98815.38
2022-10-05T01:58:59.278Z,98809.25
2022-10-05T02:01:57.262Z,98803.91
2022-10-05T02:05:00.325Z,98799.06
2022-10-05T02:07:24.421Z,98803.34
2022-10-05T02:09:56.342Z,98800.91
2022-10-05T02:12:25.509Z,98797.22
2022-10-05T02:14:57.368Z,98799.81
2022-10-05T02:17:27.442Z,98788.13
2022-10-05T02:20:04.550Z,98799.59
2022-10-05T02:22:37.549Z,98793.50
2022-10-05T02:25:10.829Z,98792.56
2022-10-05T02:27:44.059Z,98784.97
2022-10-05T02:30:16.249Z,98780.50
2022-10-05T02:33:06.465Z,98777.91
2022-10-05T02:35:33.052Z,98771.44
2022-10-05T02:38:14.716Z,98776.81
2022-10-05T02:41:07.693Z,98770.47
2022-10-05T02:43:44.350Z,98770.66
2022-10-05T02:46:18.541Z,98771.22
2022-10-05T02:49:07.059Z,98775.31
2022-10-05T02:51:51.323Z,98774.78
2022-10-05T02:54:24.176Z,98788.66
2022-10-05T02:57:09.509Z,98779.63
2022-10-05T02:59:47.439Z,98789.72
2022-10-05T03:02:20.391Z,98788.75
2022-10-05T03:05:00.577Z,98794.19
2022-10-05T03:07:35.200Z,98798.34
2022-10-05T03:10:10.468Z,98792.91
2022-10-05T03:12:48.874Z,98801.78
2022-10-05T03:15:48.813Z,98794.91
2022-10-05T03:18:48.502Z,98786.97
2022-10-05T03:21:33.767Z,98791.16
2022-10-05T03:24:17.434Z,98789.13
2022-10-05T03:27:06.000Z,98790.25
2022-10-05T03:29:41.098Z,98782.19
2022-10-05T03:32:26.535Z,98774.16
2022-10-05T03:35:31.148Z,98767.31
2022-10-05T03:38:16.174Z,98768.25
2022-10-05T03:41:13.245Z,98760.56
2022-10-05T03:44:00.208Z,98753.53
2022-10-05T03:46:39.687Z,98751.91
2022-10-05T03:49:24.812Z,98753.41
2022-10-05T03:52:15.763Z,98746.03
2022-10-05T03:54:45.890Z,98744.91
2022-10-05T03:57:23.990Z,98749.59
2022-10-05T03:59:59.322Z,98738.41
2022-10-05T04:02:31.877Z,98738.59
2022-10-05T04:05:03.726Z,98734.50
2022-10-05T04:07:46.822Z,98738.16
2022-10-05T04:10:25.413Z,98738.97
2022-10-05T04:13:01.640Z,98736.72
2022-10-05T04:15:35.285Z,98741.75
2022-10-05T04:18:40.656Z,98733.34
2022-10-05T04:21:23.747Z,98731.44
2022-10-05T04:24:00.477Z,98736.59
2022-10-05T04:26:50.983Z,98736.19
2022-10-05T04:29:44.597Z,98739.25
2022-10-05T04:32:31.276Z,98731.41
2022-10-05T04:35:25.500Z,98728.94
2022-10-05T04:38:11.078Z,98730.78
2022-10-05T04:40:38.182Z,98734.34
2022-10-05T04:43:36.002Z,98735.47
2022-10-05T04:46:29.183Z,98728.63
2022-10-05T04:49:07.788Z,98726.50
2022-10-05T04:51:51.310Z,98734.28
2022-10-05T04:54:56.286Z,98739.34
2022-10-05T04:57:29.318Z,98746.44
2022-10-05T05:00:09.625Z,98746.53
2022-10-05T05:02:56.414Z,98753.19
2022-10-05T05:05:34.807Z,98758.53
2022-10-05T05:08:04.591Z,98766.34
2022-10-05T05:11:13.641Z,98770.66
2022-10-05T05:14:00.695Z,98777.44
2022-10-05T05:16:38.194Z,98775.75
2022-10-05T05:19:16.171Z,98779.50
2022-10-05T05:22:27.946Z,98769.41
2022-10-05T05:25:22.055Z,98775.03
2022-10-05T05:28:01.338Z,98779.03
2022-10-05T05:30:47.972Z,98775.03
2022-10-05T05:33:31.201Z,98781.22
2022-10-05T05:36:22.190Z,98773.34
2022-10-05T05:39:08.918Z,98786.88
2022-10-05T05:41:39.343Z,98794.03
2022-10-05T05:44:26.000Z,98786.41
2022-10-05T05:47:16.835Z,98792.00
2022-10-05T05:50:30.324Z,98794.75
2022-10-05T05:53:22.778Z,98794.13
2022-10-05T05:56:04.514Z,98802.56
2022-10-05T05:58:35.814Z,98808.41
2022-10-05T06:01:30.617Z,98808.50
2022-10-05T06:04:02.769Z,98809.81
2022-10-05T06:06:36.335Z,98815.50
2022-10-05T06:09:16.730Z,98809.63
2022-10-05T06:11:57.084Z,98824.72
2022-10-05T06:14:45.415Z,98826.25
2022-10-05T06:17:12.029Z,98818.97
2022-10-05T06:19:39.541Z,98821.47
2022-10-05T06:22:17.320Z,98829.34
2022-10-05T06:24:59.743Z,98830.88
2022-10-05T06:27:38.808Z,98839.25
2022-10-05T06:30:14.950Z,98843.44
2022-10-05T06:33:12.390Z,98846.28
2022-10-05T06:35:46.421Z,98850.97
2022-10-05T06:38:34.987Z,98852.63
2022-10-05T06:41:28.895Z,98844.28
2022-10-05T06:44:01.107Z,98861.16
2022-10-05T06:47:07.608Z,98852.81
2022-10-05T06:50:09.117Z,98856.16
2022-10-05T06:52:54.051Z,98857.28
2022-10-05T06:55:30.786Z,98856.91
2022-10-05T06:58:27.774Z,98853.75
2022-10-05T07:01:06.443Z,98861.75
2022-10-05T07:03:52.248Z,98866.75
2022-10-05T07:06:37.445Z,98865.41
2022-10-05T07:09:22.880Z,98870.56
2022-10-05T07:12:03.763Z,98867.63
2022-10-05T07:14:34.397Z,98873.94
2022-10-05T07:17:12.553Z,98880.63
2022-10-05T07:19:52.320Z,98880.16
2022-10-05T07:22:41.512Z,98874.59
2022-10-05T07:25:17.028Z,98882.22
2022-10-05T07:28:11.417Z,98875.59
2022-10-05T07:30:46.318Z,98876.22
2022-10-05T07:33:21.932Z,98878.41
2022-10-05T07:36:30.762Z,98869.13
2022-10-05T07:39:12.603Z,98865.81
2022-10-05T07:41:51.185Z,98871.91
2022-10-05T07:44:29.658Z,98870.41
2022-10-05T07:47:04.444Z,98874.69
2022-10-05T07:50:03.284Z,98880.22
2022-10-05T07:52:36.897Z,98869.56
2022-10-05T07:55:27.360Z,98884.69
2022-10-05T07:58:19.355Z,98885.88
2022-10-05T08:00:56.623Z,98888.63
2022-10-05T08:03:30.490Z,98877.66
2022-10-05T08:05:58.588Z,98883.13
2022-10-05T08:08:37.112Z,98882.22
2022-10-05T08:11:38.488Z,98881.16
2022-10-05T08:14:14.736Z,98881.84
2022-10-05T08:16:42.251Z,98890.16
2022-10-05T08:19:19.074Z,98882.03
2022-10-05T08:21:52.573Z,98874.97
2022-10-05T08:24:46.054Z,98881.72
2022-10-05T08:27:15.398Z,98880.56
2022-10-05T08:29:58.543Z,98879.56
2022-10-05T08:32:29.364Z,98882.78
2022-10-05T08:35:13.841Z,98872.25
2022-10-05T08:37:42.494Z,98875.72
2022-10-05T08:40:33.795Z,98877.94
2022-10-05T08:43:37.937Z,98870.59
2022-10-05T08:46:31.136Z,98871.06
2022-10-05T08:49:12.690Z,98870.28
2022-10-05T08:51:42.173Z,98864.31
2022-10-05T08:54:30.473Z,98866.06
2022-10-05T08:57:22.215Z,98864.13
2022-10-05T09:00:10.882Z,98855.13
2022-10-05T09:02:56.066Z,98859.78
2022-10-05T09:05:50.461Z,98856.44
2022-10-05T09:08:29.760Z,98856.09
2022-10-05T09:11:10.067Z,98858.41
2022-10-05T09:13:47.044Z,98851.06
2022-10-05T09:16:24.290Z,98850.75
2022-10-05T09:19:32.885Z,98852.53
2022-10-05T09:22:38.343Z,98857.91
2022-10-05T09:25:32.585Z,98848.09
2022-10-05T09:28:05.715Z,98851.66
2022-10-05T09:30:52.874Z,98845.03
2022-10-05T09:33:38.641Z,98841.75
2022-10-05T09:36:16.278Z,98848.50
2022-10-05T09:39:13.007Z,98848.38
2022-10-05T09:42:13.428Z,98839.47
2022-10-05T09:45:35.813Z,98830.59
2022-10-05T09:48:22.086Z,98832.34
2022-10-05T09:51:07.883Z,98831.78
2022-10-05T09:54:12.225Z,98827.31
2022-10-05T09:56:43.833Z,98829.50
2022-10-05T09:59:42.173Z,98823.91
2022-10-05T10:02:20.762Z,98816.56
2022-10-05T10:05:16.777Z,98817.63
2022-10-05T10:08:11.952Z,98810.53
2022-10-05T10:11:00.454Z,98809.53
2022-10-05T10:13:53.287Z,98796.88
2022-10-05T10:16:41.429Z,98799.50
2022-10-05T10:19:24.098Z,98792.03
2022-10-05T10:22:09.398Z,98790.50
2022-10-05T10:24:48.285Z,98796.38
2022-10-05T10:27:42.291Z,98793.22
2022-10-05T10:30:40.778Z,98789.06
2022-10-05T10:33:25.666Z,98788.22
2022-10-05T10:36:06.922Z,98789.50
2022-10-05T10:38:40.547Z,98774.19
2022-10-05T10:41:37.670Z,98781.09
2022-10-05T10:44:22.614Z,98775.47
2022-10-05T10:47:14.001Z,98777.16
2022-10-05T10:50:19.437Z,98784.47
2022-10-05T10:53:40.172Z,98771.59
2022-10-05T10:56:34.169Z,98758.47
2022-10-05T10:59:27.851Z,98756.41
2022-10-05T11:02:37.548Z,98756.31
2022-10-05T11:05:26.084Z,98752.50
2022-10-05T11:08:22.885Z,98745.34
2022-10-05T11:11:08.175Z,98744.56
2022-10-05T11:13:37.603Z,98741.91
2022-10-05T11:16:15.893Z,98736.28
2022-10-05T11:19:16.572Z,98731.53
2022-10-05T11:22:05.360Z,98730.91
2022-10-05T11:24:54.805Z,98729.84
2022-10-05T11:27:47.053Z,98723.03
2022-10-05T11:31:02.002Z,98716.72
2022-10-05T11:33:34.858Z,98708.44
2022-10-05T11:36:18.807Z,98708.00
2022-10-05T11:39:17.660Z,98706.16
2022-10-05T11:42:05.775Z,98702.41
2022-10-05T11:44:35.537Z,98706.81
2022-10-05T11:47:10.711Z,98702.44
2022-10-05T11:49:44.781Z,98696.84
2022-10-05T11:52:21.524Z,98702.59
2022-10-05T11:55:19.400Z,98701.78
2022-10-05T11:57:53.359Z,98690.63
2022-10-05T12:00:22.952Z,98694.13
2022-10-05T12:02:58.549Z,98686.91
2022-10-05T12:05:41.479Z,98689.00
2022-10-05T12:08:26.087Z,98682.09
2022-10-05T12:11:11.410Z,98675.03
2022-10-05T12:13:41.067Z,98675.66
2022-10-05T12:16:16.842Z,98676.59
2022-10-05T12:18:52.488Z,98674.63
2022-10-05T12:21:25.050Z,98670.44
2022-10-05T12:24:26.886Z,98666.84
2022-10-05T12:27:04.196Z,98670.75
2022-10-05T12:29:39.343Z,98664.81
2022-10-05T12:32:22.533Z,98659.66
2022-10-05T12:35:36.247Z,98656.13
2022-10-05T12:38:28.993Z,98658.25
2022-10-05T12:41:05.785Z,98649.22
2022-10-05T12:43:34.867Z,98646.56
2022-10-05T12:46:09.094Z,98649.75
2022-10-05T12:48:44.812Z,98647.47
2022-10-05T12:51:25.177Z,98639.25
2022-10-05T12:53:54.351Z,98641.81
2022-10-05T12:56:28.378Z,98638.59
2022-10-05T12:58:54.688Z,98636.00
2022-10-05T13:01:41.840Z,98630.75
2022-10-05T13:04:17.798Z,98624.94
2022-10-05T13:07:19.836Z,98635.53
2022-10-05T13:09:58.678Z,98631.41
2022-10-05T13:12:42.842Z,98628.31
2022-10-05T13:15:22.680Z,98628.81
2022-10-05T13:18:10.372Z,98627.47
2022-10-05T13:20:45.588Z,98625.94
2022-10-05T13:23:36.434Z,98619.72
2022-10-05T13:26:13.307Z,98619.06
2022-10-05T13:29:00.375Z,98614.69
2022-10-05T13:31:40.878Z,98617.38
2022-10-05T13:34:22.911Z,98620.72
2022-10-05T13:37:16.055Z,98621.56
2022-10-05T13:40:05.821Z,98615.34
2022-10-05T13:42:45.793Z,98616.03
2022-10-05T13:45:20.669Z,98605.50
2022-10-05T13:47:59.693Z,98603.84
2022-10-05T13:50:34.553Z,98598.94
2022-10-05T13:53:18.303Z,98597.78
2022-10-05T13:55:55.238Z,98601.06
2022-10-05T13:58:25.401Z,98606.31
2022-10-05T14:00:57.648Z,98604.47
2022-10-05T14:03:25.104Z,98613.94
2022-10-05T14:05:57.384Z,98615.13
2022-10-05T14:08:35.151Z,98614.34
2022-10-05T14:11:21.687Z,98611.59
2022-10-05T14:13:49.045Z,98606.88
2022-10-05T14:16:26.128Z,98604.69
2022-10-05T14:19:04.783Z,98607.06
2022-10-05T14:21:32.887Z,98617.66
2022-10-05T14:24:32.251Z,98608.84
2022-10-05T14:27:27.361Z,98608.16
2022-10-05T14:30:17.704Z,98614.84
2022-10-05T14:32:59.439Z,98608.56
2022-10-05T14:35:31.264Z,98614.91
2022-10-05T14:38:01.522Z,98608.19
2022-10-05T14:40:30.972Z,98618.88
2022-10-05T14:42:59.976Z,98613.19
2022-10-05T14:45:29.937Z,98610.56
2022-10-05T14:48:10.497Z,98611.22
2022-10-05T14:50:55.970Z,98613.94
2022-10-05T14:53:24.925Z,98613.75
2022-10-05T14:56:08.886Z,98610.56
2022-10-05T14:58:56.230Z,98616.59
2022-10-05T15:01:31.470Z,98614.22
2022-10-05T15:04:20.464Z,98606.75
2022-10-05T15:06:51.135Z,98608.53
2022-10-05T15:09:41.913Z,98599.38
2022-10-05T15:12:08.929Z,98600.19
2022-10-05T15:14:42.001Z,98609.06
2022-10-05T15:17:34.670Z,98608.19
2022-10-05T15:20:26.214Z,98606.44
2022-10-05T15:23:26.248Z,98606.50
2022-10-05T15:26:01.820Z,98611.81
2022-10-05T15:28:34.596Z,98611.00
2022-10-05T15:31:13.857Z,98610.38
2022-10-05T15:33:53.598Z,98607.56
2022-10-05T15:36:36.807Z,98614.41
2022-10-05T15:39:34.640Z,98602.56
2022-10-05T15:42:03.943Z,98603.84
2022-10-05T15:44:52.171Z,98607.22
2022-10-05T15:47:43.736Z,98606.06
2022-10-05T15:50:18.856Z,98611.88
2022-10-05T15:52:50.680Z,98602.50
2022-10-05T15:55:30.059Z,98617.34
2022-10-05T15:58:14.957Z,98612.47
2022-10-05T16:00:57.886Z,98615.09
2022-10-05T16:03:48.418Z,98620.09
2022-10-05T16:06:55.551Z,98625.06
2022-10-05T16:09:37.108Z,98627.41
2022-10-05T16:12:19.034Z,98629.22
2022-10-05T16:14:56.944Z,98631.84
2022-10-05T16:17:36.616Z,98629.53
2022-10-05T16:20:15.236Z,98631.13
2022-10-05T16:23:01.967Z,98641.44
2022-10-05T16:25:46.987Z,98646.13
2022-10-05T16:28:16.632Z,98645.63
2022-10-05T16:30:55.155Z,98647.47
2022-10-05T16:33:30.188Z,98648.91
2022-10-05T16:36:07.322Z,98653.50
2022-10-05T16:41:20.101Z,98656.78
2022-10-05T16:44:04.727Z,98656.09
2022-10-05T16:46:45.961Z,98656.56
2022-10-05T16:49:35.518Z,98662.56
2022-10-05T16:52:06.553Z,98670.63
2022-10-05T16:54:43.080Z,98673.06
2022-10-05T16:57:18.219Z,98672.25
2022-10-05T17:00:03.601Z,98675.00
2022-10-05T17:02:54.361Z,98670.34
2022-10-05T17:05:32.842Z,98671.34
2022-10-05T17:08:15.419Z,98676.09
2022-10-05T17:10:59.958Z,98679.78
2022-10-05T17:13:50.446Z,98681.97
2022-10-05T17:16:29.184Z,98683.69
2022-10-05T17:19:12.756Z,98687.84
2022-10-05T17:21:44.379Z,98690.53
2022-10-05T17:24:36.850Z,98703.22
2022-10-05T17:27:17.840Z,98705.91
2022-10-05T17:29:49.813Z,98706.03
2022-10-05T17:32:16.248Z,98697.56
2022-10-05T17:35:01.130Z,98708.28
2022-10-05T17:37:35.438Z,98712.91
2022-10-05T17:40:31.275Z,98713.63
2022-10-05T17:43:01.074Z,98706.59
2022-10-05T17:45:33.534Z,98715.91
2022-10-05T17:48:05.930Z,98715.78
2022-10-05T17:51:07.467Z,98726.28
2022-10-05T17:53:52.245Z,98728.88
2022-10-05T17:56:20.199Z,98721.41
2022-10-05T17:58:54.494Z,98721.66
2022-10-05T18:01:34.356Z,98724.34
2022-10-05T18:04:13.172Z,98739.06
2022-10-05T18:06:47.976Z,98734.66
2022-10-05T18:09:16.884Z,98736.44
2022-10-05T18:11:45.152Z,98742.84
2022-10-05T18:14:19.048Z,98735.38
2022-10-05T18:17:03.511Z,98742.22
2022-10-05T18:19:31.381Z,98745.16
2022-10-05T18:22:27.625Z,98752.41
2022-10-05T18:25:03.802Z,98753.22
2022-10-05T18:27:34.190Z,98752.63
2022-10-05T18:30:18.116Z,98755.31
2022-10-05T18:33:04.289Z,98771.00
2022-10-05T18:35:56.523Z,98768.06
2022-10-05T18:38:51.195Z,98774.56
2022-10-05T18:41:29.477Z,98774.13
2022-10-05T18:44:14.262Z,98775.59
2022-10-05T18:47:01.867Z,98774.75
2022-10-05T18:49:47.248Z,98769.16
2022-10-05T18:52:39.067Z,98782.16
2022-10-05T18:55:17.432Z,98776.56
2022-10-05T18:58:13.373Z,98781.00
2022-10-05T19:00:58.418Z,98794.84
2022-10-05T19:03:40.455Z,98797.22
2022-10-05T19:06:25.563Z,98786.72
2022-10-05T19:09:08.586Z,98798.09
2022-10-05T19:11:52.451Z,98800.75
2022-10-05T19:14:36.856Z,98809.59
2022-10-05T19:17:03.754Z,98812.41
2022-10-05T19:19:43.782Z,98816.25
2022-10-05T19:22:28.588Z,98820.06
2022-10-05T19:25:02.181Z,98828.94
2022-10-05T19:27:34.564Z,98837.06
2022-10-05T19:30:14.610Z,98842.06
2022-10-05T19:33:08.846Z,98844.28
2022-10-05T19:35:42.301Z,98839.13
2022-10-05T19:38:23.723Z,98844.72
2022-10-05T19:41:13.488Z,98851.06
2022-10-05T19:44:04.540Z,98864.94
2022-10-05T19:47:10.638Z,98864.19
2022-10-05T19:49:57.020Z,98873.78
2022-10-05T19:52:49.004Z,98873.75
2022-10-05T19:55:26.310Z,98869.47
2022-10-05T19:58:01.186Z,98882.75
2022-10-05T20:00:31.474Z,98881.72
2022-10-05T20:03:19.686Z,98884.97
2022-10-05T20:05:47.479Z,98886.28
2022-10-05T20:08:19.487Z,98891.44
2022-10-05T20:11:13.307Z,98889.81
2022-10-05T20:13:41.802Z,98895.88
2022-10-05T20:16:45.374Z,98897.91
2022-10-05T20:19:47.391Z,98902.19
2022-10-05T20:22:33.443Z,98910.28
2022-10-05T20:25:06.224Z,98922.44
2022-10-05T20:27:46.455Z,98918.09
2022-10-05T20:30:18.413Z,98913.09
2022-10-05T20:32:52.740Z,98923.13
2022-10-05T20:35:22.349Z,98931.94
2022-10-05T20:37:49.959Z,98929.94
2022-10-05T20:40:18.668Z,98938.06
2022-10-05T20:42:45.437Z,98938.94
2022-10-05T20:45:13.162Z,98942.03
2022-10-05T20:47:40.397Z,98945.09
2022-10-05T20:50:09.074Z,98943.47
2022-10-05T20:52:37.372Z,98948.66
2022-10-05T20:55:05.291Z,98959.25
2022-10-05T20:57:32.421Z,98955.69
2022-10-05T20:59:58.913Z,98956.75
2022-10-05T21:02:25.445Z,98962.75
2022-10-05T21:04:52.380Z,98965.13
2022-10-05T21:07:23.248Z,98968.28
2022-10-05T21:09:50.967Z,98962.28
2022-10-05T21:12:17.483Z,98969.75
2022-10-05T21:14:44.044Z,98973.84
2022-10-05T21:17:11.968Z,98970.75
2022-10-05T21:19:39.342Z,98973.38
2022-10-05T21:22:07.469Z,98968.63
2022-10-05T21:24:35.857Z,98982.78
2022-10-05T21:27:02.787Z,98980.00
2022-10-05T21:29:29.805Z,98978.34
2022-10-05T21:31:56.642Z,98988.84
2022-10-05T21:34:23.696Z,98990.19
2022-10-05T21:36:50.247Z,98988.16
2022-10-05T21:39:17.014Z,98992.69
2022-10-05T21:41:43.483Z,98993.66
2022-10-05T21:44:10.110Z,98999.44
2022-10-05T21:46:37.643Z,98995.50
2022-10-05T21:49:06.379Z,99003.94
2022-10-05T21:51:33.951Z,99005.63
2022-10-05T21:54:03.649Z,98999.94
2022-10-05T21:56:40.769Z,99001.00
2022-10-05T21:59:09.497Z,99002.56
2022-10-05T22:01:36.608Z,99010.81
2022-10-05T22:04:04.119Z,99012.03
2022-10-05T22:06:31.270Z,99014.25
2022-10-05T22:08:59.477Z,99012.75
2022-10-05T22:11:26.445Z,99013.75
2022-10-05T22:13:53.241Z,99013.91
2022-10-05T22:16:21.881Z,99012.72
2022-10-05T22:18:48.919Z,99009.59
2022-10-05T22:21:15.961Z,99014.13
2022-10-05T22:23:44.995Z,99013.00
2022-10-05T22:26:13.931Z,99014.88
2022-10-05T22:28:42.332Z,99020.63
2022-10-05T22:31:09.569Z,99018.34
2022-10-05T22:33:37.112Z,99024.66
2022-10-05T22:36:04.661Z,99018.16
2022-10-05T22:38:31.591Z,99029.34
2022-10-05T22:40:58.480Z,99032.75
2022-10-05T22:43:26.978Z,99027.97
2022-10-05T22:45:54.258Z,99032.97
2022-10-05T22:48:20.895Z,99029.47
2022-10-05T22:50:47.481Z,99033.91
2022-10-05T22:53:14.257Z,99029.78
2022-10-05T22:55:40.959Z,99033.66
2022-10-05T22:58:07.649Z,99032.66
2022-10-05T23:00:56.556Z,99039.41
2022-10-05T23:03:21.305Z,99038.03
2022-10-05T23:05:47.828Z,99037.53
2022-10-05T23:08:14.448Z,99032.50
2022-10-05T23:10:40.980Z,99037.03
2022-10-05T23:13:08.670Z,99040.56
2022-10-05T23:15:35.788Z,99044.78
2022-10-05T23:18:02.362Z,99050.84
2022-10-05T23:20:29.075Z,99050.19
2022-10-05T23:22:55.747Z,99053.47
2022-10-05T23:25:22.353Z,99053.97
2022-10-05T23:27:49.226Z,99046.47
2022-10-05T23:30:15.721Z,99052.81
2022-10-05T23:32:43.658Z,99052.81
2022-10-05T23:35:12.257Z,99059.91
2022-10-05T23:37:43.611Z,99053.47
2022-10-05T23:40:14.109Z,99052.47
2022-10-05T23:42:41.114Z,99052.09
2022-10-05T23:45:11.443Z,99058.06
2022-10-05T23:47:38.936Z,99061.69
2022-10-05T23:50:06.948Z,99063.59
2022-10-05T23:52:34.495Z,99070.66
2022-10-05T23:55:02.173Z,99069.75
2022-10-05T23:57:28.746Z,99071.81
2022-10-05T23:59:56.304Z,99072.16
